METAR Data
IDs: Format: Raw Decoded Include TAF

Data at: 1001 UTC 18 Jan 2022

KAJZ 180955Z AUTO 00000KT 10SM CLR M05/M10 A3007 RMK AO2 T10461098
KAJZ 180935Z AUTO 00000KT 10SM CLR M05/M10 A3007 RMK AO2 T10511100
KAJZ 180915Z AUTO 00000KT 10SM CLR M05/M10 A3007 RMK AO2 T10501102
KAJZ 180855Z AUTO 00000KT 10SM CLR M03/M09 A3006 RMK AO2 T10321095
KAJZ 180835Z AUTO 00000KT 10SM CLR M04/M10 A3007 RMK AO2 T10391096
KAJZ 180815Z AUTO 00000KT 10SM CLR M04/M10 A3007 RMK AO2 T10381100
KAJZ 180755Z AUTO 00000KT 10SM CLR M04/M10 A3007 RMK AO2 T10431100
KAJZ 180735Z AUTO 00000KT 10SM CLR M04/M09 A3007 RMK AO2 T10371094
KAJZ 180715Z AUTO 33003KT 10SM CLR M04/M10 A3008 RMK AO2 T10421101
KAJZ 180655Z AUTO 00000KT 10SM CLR M03/M10 A3008 RMK AO2 T10301096
KAJZ 180635Z AUTO 00000KT 10SM CLR M04/M10 A3008 RMK AO2 T10361099
KAJZ 180615Z AUTO 00000KT 10SM CLR M03/M09 A3008 RMK AO2 T10271095
KAJZ 180555Z AUTO 06005KT 10SM CLR M03/M09 A3008 RMK AO2 T10261095 10049 21029 400921088
KAJZ 180535Z AUTO 07003KT 10SM CLR M03/M10 A3008 RMK AO2 T10271099
KAJZ 180515Z AUTO 00000KT 10SM CLR M01/M09 A3009 RMK AO2 T10071086
KAJZ 180455Z AUTO 00000KT 10SM CLR M01/M09 A3008 RMK AO2 T10081091
KAJZ 180435Z AUTO 00000KT 10SM CLR 00/M09 A3008 RMK AO2 T10041086
KAJZ 180415Z AUTO 00000KT 10SM CLR M01/M09 A3009 RMK AO2 T10071093
KAJZ 180355Z AUTO 00000KT 10SM CLR 00/M09 A3009 RMK AO2 T00001094
KAJZ 180335Z AUTO 00000KT 10SM CLR M01/M10 A3009 RMK AO2 T10061099
KAJZ 180315Z AUTO 00000KT 10SM CLR 00/M10 A3009 RMK AO2 T00001096
KAJZ 180255Z AUTO 00000KT 10SM CLR 00/M09 A3010 RMK AO2 T00041092
KAJZ 180235Z AUTO 07005KT 10SM CLR 00/M09 A3010 RMK AO2 T00031092
KAJZ 180215Z AUTO 04005KT 10SM CLR 01/M09 A3009 RMK AO2 T00051092
KAJZ 180155Z AUTO 05005KT 10SM CLR 01/M09 A3009 RMK AO2 T00081091
KAJZ 180135Z AUTO 06005KT 10SM CLR 01/M09 A3009 RMK AO2 T00121087
KAJZ 180115Z AUTO 07005KT 10SM CLR 01/M09 A3009 RMK AO2 T00141090
KAJZ 180055Z AUTO 06006KT 10SM CLR 01/M09 A3008 RMK AO2 T00111092
KAJZ 180035Z AUTO 06005KT 10SM CLR 02/M09 A3008 RMK AO2 T00181094
KAJZ 180015Z AUTO 08004KT 10SM CLR 03/M09 A3008 RMK AO2 T00341093
KAJZ 172355Z AUTO 18003KT 10SM CLR 05/M09 A3007 RMK AO2 T00501091 10092 20012
KAJZ 172335Z AUTO 19005KT 10SM CLR 06/M09 A3007 RMK AO2 T00581091
KAJZ 172315Z AUTO 20005KT 10SM CLR 07/M10 A3007 RMK AO2 T00681096
KAJZ 172255Z AUTO 25007KT 10SM CLR 08/M10 A3007 RMK AO2 T00771105
KAJZ 172235Z AUTO 22007KT 10SM CLR 09/M11 A3008 RMK AO2 T00851109
KAJZ 172215Z AUTO 22006KT 10SM CLR 09/M12 A3007 RMK AO2 T00901124
KAJZ 172155Z AUTO 22004KT 10SM CLR 09/M14 A3007 RMK AO2 T00901138
KAJZ 172135Z AUTO 22003KT 10SM CLR 09/M14 A3007 RMK AO2 T00911139
KAJZ 172115Z AUTO 23004KT 10SM CLR 09/M13 A3008 RMK AO2 T00871128
KAJZ 172055Z AUTO 22006KT 10SM CLR 08/M11 A3008 RMK AO2 T00821115
KAJZ 172035Z AUTO 22006KT 10SM CLR 08/M11 A3010 RMK AO2 T00781106
KAJZ 172015Z AUTO 22005KT 10SM CLR 07/M12 A3010 RMK AO2 T00691117
KAJZ 171955Z AUTO 24005KT 10SM CLR 07/M12 A3014 RMK AO2 T00651116
KAJZ 171935Z AUTO 25005KT 10SM CLR 05/M12 A3014 RMK AO2 T00541125
KAJZ 171915Z AUTO 00000KT 10SM CLR 05/M11 A3015 RMK AO2 T00451110
KAJZ 171855Z AUTO 00000KT 10SM CLR 04/M11 A3017 RMK AO2 T00361110
KAJZ 171835Z AUTO 00000KT 10SM CLR 03/M11 A3019 RMK AO2 T00301106
KAJZ 171815Z AUTO 00000KT 10SM CLR 02/M10 A3020 RMK AO2 T00201100
KAJZ 171755Z AUTO 00000KT 10SM CLR 01/M10 A3021 RMK AO2 T00111097 10011 21088
KAJZ 171735Z AUTO 00000KT 10SM CLR 00/M10 A3022 RMK AO2 T00001098
KAJZ 171715Z AUTO 00000KT 10SM CLR M01/M10 A3023 RMK AO2 T10071096
KAJZ 171655Z AUTO 10003KT 10SM CLR M02/M10 A3022 RMK AO2 T10211100
KAJZ 171635Z AUTO 00000KT 10SM CLR M03/M10 A3023 RMK AO2 T10321098
KAJZ 171615Z AUTO 08003KT 10SM CLR M03/M09 A3022 RMK AO2 T10311095
KAJZ 171555Z AUTO 00000KT 10SM CLR M05/M10 A3022 RMK AO2 T10551099
KAJZ 171535Z AUTO 00000KT 10SM CLR M06/M10 A3022 RMK AO2 T10641105
KAJZ 171515Z AUTO 00000KT 10SM CLR M06/M10 A3022 RMK AO2 T10651105
KAJZ 171455Z AUTO 00000KT 10SM CLR M08/M11 A3022 RMK AO2 T10791113
KAJZ 171435Z AUTO 00000KT 10SM CLR M08/M11 A3022 RMK AO2 T10821114
KAJZ 171415Z AUTO 00000KT 10SM CLR M09/M12 A3021 RMK AO2 T10861118
KAJZ 171355Z AUTO 00000KT 10SM CLR M09/M12 A3021 RMK AO2 T10871120
KAJZ 171335Z AUTO 00000KT 10SM CLR M08/M12 A3021 RMK AO2 T10821116
KAJZ 171315Z AUTO 06004KT 10SM CLR M08/M12 A3021 RMK AO2 T10811117
KAJZ 171255Z AUTO 06004KT 10SM CLR M08/M11 A3021 RMK AO2 T10761114
KAJZ 171235Z AUTO 00000KT 10SM CLR M07/M11 A3021 RMK AO2 T10741109
KAJZ 171215Z AUTO 00000KT 10SM CLR M07/M11 A3022 RMK AO2 T10731112
KAJZ 171155Z AUTO 00000KT 10SM CLR M07/M11 A3022 RMK AO2 T10671107 11022 21081
KAJZ 171135Z AUTO 00000KT 10SM CLR M06/M10 A3022 RMK AO2 T10631105
KAJZ 171115Z AUTO 00000KT 10SM CLR M07/M11 A3022 RMK AO2 T10751113
KAJZ 171055Z AUTO 00000KT 10SM CLR M07/M11 A3022 RMK AO2 T10751109
KAJZ 171035Z AUTO 00000KT 10SM CLR M07/M11 A3022 RMK AO2 T10711108
KAJZ 171015Z AUTO 00000KT 10SM CLR M06/M10 A3023 RMK AO2 T10581103
KAJZ 170955Z AUTO 00000KT 10SM CLR M06/M10 A3023 RMK AO2 T10621101
KAJZ 170930Z AUTO 00000KT 10SM CLR M05/M10 A3023 RMK AO2 T10551105
KAJZ 170915Z AUTO 00000KT 10SM CLR M05/M10 A3023 RMK AO2 T10501098
KAJZ 170855Z AUTO 00000KT 10SM CLR M05/M10 A3024 RMK AO2 T10521102
KAJZ 170835Z AUTO 00000KT 10SM CLR M06/M10 A3024 RMK AO2 T10561103
KAJZ 170815Z AUTO 00000KT 10SM CLR M05/M10 A3024 RMK AO2 T10461099
KAJZ 170755Z AUTO 05003KT 10SM CLR M05/M10 A3024 RMK AO2 T10471101
KAJZ 170735Z AUTO 05005KT 10SM CLR M05/M10 A3024 RMK AO2 T10501104
KAJZ 170715Z AUTO 04005KT 10SM CLR M05/M10 A3025 RMK AO2 T10531105
KAJZ 170655Z AUTO 06003KT 10SM CLR M04/M10 A3025 RMK AO2 T10411102
KAJZ 170635Z AUTO 00000KT 10SM CLR M04/M10 A3025 RMK AO2 T10361097
KAJZ 170615Z AUTO 00000KT 10SM CLR M03/M10 A3025 RMK AO2 T10291096
KAJZ 170555Z AUTO 00000KT 10SM CLR M02/M10 A3025 RMK AO2 T10221096 10065 21028 400781102
KAJZ 170535Z AUTO 00000KT 10SM CLR M03/M10 A3026 RMK AO2 T10261099
KAJZ 170515Z AUTO 00000KT 10SM CLR M03/M10 A3026 RMK AO2 T10281101
KAJZ 170455Z AUTO 00000KT 10SM CLR M02/M09 A3026 RMK AO2 T10191095
KAJZ 170435Z AUTO 00000KT 10SM CLR M02/M10 A3026 RMK AO2 T10221102
KAJZ 170415Z AUTO 04004KT 10SM CLR M02/M10 A3026 RMK AO2 T10251101
KAJZ 170355Z AUTO 04004KT 10SM CLR M02/M10 A3026 RMK AO2 T10251102
KAJZ 170335Z AUTO 05004KT 10SM CLR M01/M10 A3026 RMK AO2 T10151099
KAJZ 170315Z AUTO 05005KT 10SM CLR M02/M10 A3025 RMK AO2 T10191101
KAJZ 170255Z AUTO 06006KT 10SM CLR M01/M10 A3025 RMK AO2 T10111103
KAJZ 170235Z AUTO 07005KT 10SM CLR M01/M11 A3025 RMK AO2 T10101107
KAJZ 170215Z AUTO 07005KT 10SM CLR M01/M11 A3025 RMK AO2 T10061109
KAJZ 170155Z AUTO 05005KT 10SM CLR 00/M10 A3025 RMK AO2 T00001105
KAJZ 170135Z AUTO 00000KT 10SM CLR 01/M10 A3024 RMK AO2 T00141104
KAJZ 170115Z AUTO 00000KT 10SM CLR 00/M10 A3024 RMK AO2 T00041100
KAJZ 170055Z AUTO 00000KT 10SM CLR 03/M10 A3023 RMK AO2 T00301100
KAJZ 170035Z AUTO 19004KT 10SM CLR 03/M10 A3022 RMK AO2 T00321102
KAJZ 170015Z AUTO 21004KT 10SM CLR 05/M10 A3022 RMK AO2 T00461100
KAJZ 162355Z AUTO 21005KT 10SM CLR 07/M10 A3022 RMK AO2 T00651098 10078 20010
KAJZ 162335Z AUTO 23005KT 10SM CLR 07/M10 A3020 RMK AO2 T00731098
KAJZ 162315Z AUTO 22006KT 10SM CLR 08/M10 A3021 RMK AO2 T00761099
KAJZ 162255Z AUTO 22006KT 10SM CLR 08/M10 A3023 RMK AO2 T00771098
KAJZ 162235Z AUTO 22006KT 10SM CLR 08/M09 A3023 RMK AO2 T00751094
KAJZ 162215Z AUTO 22009KT 10SM CLR 08/M09 A3023 RMK AO2 T00761088